Time;durP1;ratioP1;P1;durP2;ratioP2;P2;SDS_P1;SDS_P2;PMS_P1;PMS_P2;Temp;Humidity;BMP_temperature;BMP_pressure;BME280_temperature;BME280_humidity;BME280_pressure;Samples;Min_cycle;Max_cycle;Signal;HPM_P1;HPM_P2
2022/05/18 00:02:06;;;;;;;1.82;1.37;;;;;;;8.18;50.61;99434.90;1716675;83;21577;-71
2022/05/18 00:04:32;;;;;;;4.37;3.98;;;;;;;8.14;50.96;99442.80;1718593;83;20999;-69
2022/05/18 00:06:59;;;;;;;5.70;4.00;;;;;;;8.10;51.09;99431.70;1726644;83;21148;-72
2022/05/18 00:09:25;;;;;;;6.67;5.10;;;;;;;8.11;51.24;99438.65;1724270;83;20921;-70
2022/05/18 00:11:52;;;;;;;6.70;6.08;;;;;;;8.08;51.51;99447.74;1724324;83;20942;-70
2022/05/18 00:14:18;;;;;;;4.87;4.37;;;;;;;8.05;51.57;99449.41;1725434;83;21488;-71
2022/05/18 00:16:45;;;;;;;5.95;4.33;;;;;;;8.03;51.72;99447.38;1725445;83;20986;-69
2022/05/18 00:19:11;;;;;;;3.65;3.08;;;;;;;8.00;51.90;99450.84;1719749;83;21367;-69
2022/05/18 00:21:38;;;;;;;4.10;2.75;;;;;;;7.98;51.98;99452.31;1726138;82;20953;-70
2022/05/18 00:24:06;;;;;;;5.15;3.42;;;;;;;7.93;52.07;99457.73;1703858;82;21009;-71
2022/05/18 00:26:34;;;;;;;3.72;2.12;;;;;;;7.89;52.19;99457.71;1696648;84;20958;-69
2022/05/18 00:29:01;;;;;;;1.98;1.60;;;;;;;7.83;52.48;99461.80;1719580;83;20970;-69
2022/05/18 00:31:27;;;;;;;2.90;1.20;;;;;;;7.78;52.59;99453.97;1719462;83;21157;-69
2022/05/18 00:33:55;;;;;;;1.17;0.70;;;;;;;7.73;52.83;99458.89;1726644;83;21499;-72
2022/05/18 00:36:22;;;;;;;0.78;0.70;;;;;;;7.67;52.95;99455.03;1727085;83;21051;-71
2022/05/18 00:38:48;;;;;;;2.98;0.70;;;;;;;7.61;53.11;99454.83;1695878;82;20994;-70
2022/05/18 00:41:19;;;;;;;0.55;0.50;;;;;;;7.56;53.41;99463.20;1715024;83;20915;-72
2022/05/18 00:43:43;;;;;;;1.47;0.60;;;;;;;7.52;53.58;99461.86;1713315;83;21179;-70
2022/05/18 00:46:13;;;;;;;3.00;0.90;;;;;;;7.50;53.75;99467.80;1725936;83;21063;-72
2022/05/18 00:48:40;;;;;;;5.10;0.95;;;;;;;7.46;54.01;99463.29;1719613;83;20983;-69
2022/05/18 00:51:11;;;;;;;1.82;1.42;;;;;;;7.42;54.11;99463.27;1719444;83;20912;-69
2022/05/18 00:53:45;;;;;;;2.77;2.55;;;;;;;7.37;54.29;99466.85;1727744;83;21002;-69
2022/05/18 00:56:18;;;;;;;3.50;3.17;;;;;;;7.32;54.46;99473.58;1719078;83;21106;-70
2022/05/18 00:58:54;;;;;;;2.30;2.10;;;;;;;7.25;54.75;99469.84;1716543;83;20975;-72
2022/05/18 01:01:20;;;;;;;3.45;2.40;;;;;;;7.22;55.00;99474.94;1717291;83;21455;-69
2022/05/18 01:03:50;;;;;;;2.60;2.40;;;;;;;7.21;55.24;99472.45;1708668;83;21011;-70
2022/05/18 01:06:41;;;;;;;3.35;2.42;;;;;;;7.18;55.29;99469.62;1709073;83;20931;-71
2022/05/18 01:09:29;;;;;;;7.97;4.30;;;;;;;7.19;55.42;99481.88;1716575;83;21310;-68
2022/05/18 01:11:55;;;;;;;7.40;4.33;;;;;;;7.20;55.52;99474.75;1715850;83;20947;-73
2022/05/18 01:14:33;;;;;;;4.80;3.08;;;;;;;7.17;55.55;99470.59;1716429;83;20971;-70
2022/05/18 01:16:59;;;;;;;14.30;4.60;;;;;;;7.16;55.66;99474.23;1712611;83;21468;-70
2022/05/18 01:19:37;;;;;;;6.10;4.37;;;;;;;7.15;55.78;99480.98;1709972;83;20978;-72
2022/05/18 01:22:24;;;;;;;7.25;6.10;;;;;;;7.16;55.90;99478.69;1719366;83;21155;-69
2022/05/18 01:25:44;;;;;;;7.87;6.12;;;;;;;7.12;56.05;99475.49;1719425;83;21405;-68
2022/05/18 01:28:10;;;;;;;4.40;3.17;;;;;;;7.08;56.23;99482.56;1727765;83;20979;-70
2022/05/18 01:30:42;;;;;;;2.98;2.62;;;;;;;7.02;56.49;99487.11;1719441;83;21014;-69
2022/05/18 01:33:09;;;;;;;2.47;1.80;;;;;;;6.98;56.68;99485.27;1719428;83;21513;-70
2022/05/18 01:35:40;;;;;;;3.40;1.50;;;;;;;6.98;56.79;99487.08;1727628;83;21121;-72
2022/05/18 01:38:12;;;;;;;1.22;1.00;;;;;;;6.96;56.90;99490.37;1717823;83;21504;-68
2022/05/18 01:41:15;;;;;;;2.80;0.93;;;;;;;6.93;56.97;99496.78;1719644;83;20999;-72
2022/05/18 01:43:49;;;;;;;1.30;1.00;;;;;;;6.87;57.12;99500.00;1719636;83;21030;-72
2022/05/18 01:46:17;;;;;;;1.45;1.22;;;;;;;6.82;57.39;99495.16;1728896;81;20935;-72
2022/05/18 01:48:47;;;;;;;4.17;1.98;;;;;;;6.80;57.63;99495.77;1727549;83;21237;-69
2022/05/18 01:51:19;;;;;;;1.95;1.42;;;;;;;6.78;57.73;99496.89;1719506;83;21552;-70
2022/05/18 01:53:45;;;;;;;1.55;1.30;;;;;;;6.74;57.83;99500.83;1728656;81;20907;-71
2022/05/18 01:56:12;;;;;;;1.65;1.30;;;;;;;6.71;58.01;99500.63;1750554;81;21037;-69
2022/05/18 01:58:38;;;;;;;1.92;1.10;;;;;;;6.70;58.13;99504.75;1727661;82;20975;-70
2022/05/18 02:01:06;;;;;;;3.87;1.40;;;;;;;6.65;58.27;99505.16;1719602;83;20991;-70
2022/05/18 02:03:33;;;;;;;1.40;1.20;;;;;;;6.61;58.52;99505.13;1719495;83;21060;-70
2022/05/18 02:06:00;;;;;;;3.50;1.62;;;;;;;6.62;58.64;99510.73;1719409;83;20921;-70
2022/05/18 02:08:28;;;;;;;2.87;1.50;;;;;;;6.60;58.69;99503.92;1725813;83;20902;-73
2022/05/18 02:10:55;;;;;;;2.22;1.87;;;;;;;6.58;58.76;99508.53;1724492;83;20990;-69
2022/05/18 02:13:21;;;;;;;6.60;2.40;;;;;;;6.56;58.91;99511.33;1724373;83;21141;-72
2022/05/18 02:15:49;;;;;;;4.97;2.55;;;;;;;6.56;58.97;99515.78;1724668;83;20902;-70
2022/05/18 02:18:15;;;;;;;4.90;2.72;;;;;;;6.56;59.08;99517.09;1693886;82;21513;-71
2022/05/18 02:20:41;;;;;;;2.47;2.15;;;;;;;6.57;59.10;99512.17;1749930;81;20982;-69
2022/05/18 02:23:08;;;;;;;3.02;2.20;;;;;;;6.57;59.17;99512.97;1757250;81;20974;-69
2022/05/18 02:25:37;;;;;;;5.75;1.77;;;;;;;6.60;59.19;99522.43;1756792;81;21193;-69
2022/05/18 02:28:04;;;;;;;2.80;1.95;;;;;;;6.61;59.24;99520.14;1723895;83;20986;-70
2022/05/18 02:30:32;;;;;;;2.17;1.67;;;;;;;6.60;59.37;99521.95;1719593;83;20939;-70
2022/05/18 02:32:59;;;;;;;2.55;1.82;;;;;;;6.60;59.46;99526.39;1719536;83;20907;-69
2022/05/18 02:35:26;;;;;;;2.83;1.60;;;;;;;6.62;59.46;99523.95;1727651;83;20937;-70
2022/05/18 02:37:53;;;;;;;1.42;1.20;;;;;;;6.66;59.48;99529.79;1719289;83;22565;-68
2022/05/18 02:40:20;;;;;;;1.70;1.60;;;;;;;6.65;59.48;99530.76;1717087;83;21054;-69
2022/05/18 02:42:46;;;;;;;2.22;1.77;;;;;;;6.64;59.58;99533.08;1716500;83;21602;-70
2022/05/18 02:45:13;;;;;;;3.45;1.42;;;;;;;6.68;59.65;99533.95;1716815;83;21013;-69
2022/05/18 02:47:40;;;;;;;1.70;1.60;;;;;;;6.70;59.60;99535.95;1717899;83;21057;-70
2022/05/18 02:50:08;;;;;;;5.15;1.75;;;;;;;6.74;59.75;99540.48;1717008;83;21154;-69
2022/05/18 02:52:37;;;;;;;3.52;2.02;;;;;;;6.79;59.75;99538.23;1716403;83;21591;-69
2022/05/18 02:57:50;;;;;;;;;;;;;;;6.91;59.88;99552.13;1718025;83;20943;-69
2022/05/18 03:00:17;;;;;;;0.62;0.62;;;;;;;6.98;59.79;99554.04;1719740;83;20085;-69
2022/05/18 03:02:43;;;;;;;1.20;0.72;;;;;;;7.08;59.60;99558.80;1719689;83;21259;-70
2022/05/18 03:05:09;;;;;;;0.82;0.55;;;;;;;7.13;59.42;99557.86;1727498;82;20926;-72
2022/05/18 03:07:36;;;;;;;0.40;0.33;;;;;;;7.18;59.26;99565.35;1718664;83;21026;-71
2022/05/18 03:10:04;;;;;;;2.08;0.40;;;;;;;7.25;59.15;99563.78;1716539;83;20908;-71
2022/05/18 03:12:30;;;;;;;0.60;0.53;;;;;;;7.30;59.19;99557.58;1716588;83;20971;-69
2022/05/18 03:14:57;;;;;;;1.42;0.35;;;;;;;7.35;59.01;99566.72;1716529;83;21215;-69
2022/05/18 03:17:23;;;;;;;1.15;0.60;;;;;;;7.36;58.87;99567.07;1718511;83;20904;-68
2022/05/18 03:19:51;;;;;;;0.50;0.40;;;;;;;7.35;58.94;99567.23;1727603;82;20938;-70
2022/05/18 03:25:05;;;;;;;0.98;0.53;;;;;;;7.57;59.25;99568.61;1719162;83;21492;-70
2022/05/18 03:27:32;;;;;;;2.20;0.50;;;;;;;7.80;59.07;99560.09;1718431;83;21524;-72
2022/05/18 03:29:58;;;;;;;1.77;0.75;;;;;;;8.00;58.63;99558.14;1716572;83;20895;-70
2022/05/18 03:32:25;;;;;;;1.05;0.47;;;;;;;8.16;58.08;99559.58;1716677;83;20935;-69
2022/05/18 03:34:52;;;;;;;0.93;0.37;;;;;;;8.28;57.71;99561.55;1716520;83;21006;-70
2022/05/18 03:37:19;;;;;;;1.87;0.30;;;;;;;8.39;57.37;99566.61;1717229;83;20967;-70
2022/05/18 03:39:46;;;;;;;0.85;0.53;;;;;;;8.45;57.26;99562.84;1717253;83;21157;-68
2022/05/18 03:42:13;;;;;;;1.05;0.33;;;;;;;8.58;57.18;99566.41;1715323;83;20990;-70
2022/05/18 03:44:40;;;;;;;1.20;0.72;;;;;;;8.67;56.82;99576.92;1708564;83;20959;-70
2022/05/18 03:47:07;;;;;;;1.47;0.37;;;;;;;8.80;56.46;99579.65;1707696;83;21557;-69
2022/05/18 03:49:33;;;;;;;10.05;7.17;;;;;;;8.93;56.21;99584.88;1708438;83;21002;-69
2022/05/18 03:52:00;;;;;;;3.92;2.00;;;;;;;9.11;55.93;99585.64;1705913;83;21270;-69
2022/05/18 03:54:27;;;;;;;2.65;1.30;;;;;;;9.38;55.64;99583.77;1708330;83;20888;-69
2022/05/18 03:56:53;;;;;;;0.80;0.80;;;;;;;9.72;54.90;99585.39;1709309;83;20923;-69
2022/05/18 03:59:20;;;;;;;0.62;0.42;;;;;;;10.08;54.07;99589.09;1719765;83;20907;-69
2022/05/18 04:01:47;;;;;;;1.75;0.47;;;;;;;10.51;53.37;99587.47;1711665;83;20967;-72
2022/05/18 04:04:14;;;;;;;0.80;0.50;;;;;;;11.01;52.44;99585.40;1711609;83;21229;-69
2022/05/18 04:06:40;;;;;;;1.32;0.90;;;;;;;11.58;51.01;99587.84;1711251;83;21469;-69
2022/05/18 04:09:07;;;;;;;1.82;1.00;;;;;;;12.09;49.73;99580.59;1711526;83;20960;-69
2022/05/18 04:11:33;;;;;;;4.45;1.15;;;;;;;12.63;48.12;99577.81;1711538;83;20928;-71
2022/05/18 04:14:00;;;;;;;1.12;0.70;;;;;;;13.03;47.02;99583.56;1711843;83;20911;-69
2022/05/18 04:16:27;;;;;;;1.20;0.50;;;;;;;13.46;45.77;99579.27;1710492;83;21266;-69
2022/05/18 04:18:53;;;;;;;2.33;0.72;;;;;;;13.87;44.82;99586.23;1719825;82;21074;-70
2022/05/18 04:21:20;;;;;;;2.05;0.70;;;;;;;14.14;43.73;99583.33;1711660;83;20983;-71
2022/05/18 04:23:46;;;;;;;5.03;0.90;;;;;;;14.44;42.94;99582.23;1711554;83;20998;-69
2022/05/18 04:26:13;;;;;;;0.60;0.60;;;;;;;14.79;42.26;99586.63;1709577;83;21168;-69
2022/05/18 04:28:39;;;;;;;2.55;0.62;;;;;;;15.20;41.56;99596.08;1708393;83;21155;-69
2022/05/18 04:31:08;;;;;;;1.15;0.70;;;;;;;15.59;40.48;99584.76;1708590;83;21485;-69
2022/05/18 04:33:34;;;;;;;0.40;0.40;;;;;;;15.87;39.85;99590.05;1708420;83;21471;-69
2022/05/18 04:36:02;;;;;;;1.42;0.80;;;;;;;16.11;38.92;99587.33;1708194;83;21418;-70
2022/05/18 04:38:29;;;;;;;3.87;0.65;;;;;;;16.34;38.22;99596.66;1702098;83;21433;-70
2022/05/18 04:40:56;;;;;;;3.02;0.60;;;;;;;16.53;37.85;99593.70;1711413;83;21117;-71
2022/05/18 04:43:24;;;;;;;1.10;0.47;;;;;;;16.74;37.02;99591.36;1715916;83;20947;-71
2022/05/18 04:45:51;;;;;;;3.17;0.57;;;;;;;16.88;36.60;99592.47;1719288;83;20897;-72
2022/05/18 04:48:19;;;;;;;5.37;2.87;;;;;;;17.02;36.23;99590.60;1753571;81;20939;-72
2022/05/18 04:50:47;;;;;;;6.45;2.02;;;;;;;17.23;35.87;99591.16;1757214;81;21473;-72
2022/05/18 04:53:15;;;;;;;5.53;0.90;;;;;;;17.41;35.26;99599.10;1757142;81;21126;-70
2022/05/18 04:55:41;;;;;;;2.00;0.90;;;;;;;17.57;35.02;99594.64;1736817;81;21450;-70
2022/05/18 04:58:08;;;;;;;4.05;0.80;;;;;;;17.84;34.61;99594.83;1726030;82;20902;-70
2022/05/18 05:00:34;;;;;;;3.10;0.98;;;;;;;18.12;34.10;99594.49;1724245;83;20957;-70
2022/05/18 05:03:01;;;;;;;1.17;0.80;;;;;;;18.32;33.63;99583.07;1724294;83;20930;-69
2022/05/18 05:05:28;;;;;;;1.95;0.57;;;;;;;18.39;32.76;99594.09;1724281;83;21136;-70
2022/05/18 05:07:56;;;;;;;3.20;0.80;;;;;;;18.38;32.85;99588.40;1718968;83;21015;-69
2022/05/18 05:10:22;;;;;;;3.98;0.85;;;;;;;18.52;32.68;99595.07;1718913;83;21030;-72
2022/05/18 05:12:50;;;;;;;2.47;0.90;;;;;;;18.77;32.62;99594.58;1718490;83;20970;-69
2022/05/18 05:15:17;;;;;;;4.90;1.40;;;;;;;19.10;31.75;99591.89;1718969;83;20868;-70
2022/05/18 05:17:44;;;;;;;1.57;0.70;;;;;;;19.14;31.20;99596.29;1718805;83;21269;-72
2022/05/18 05:20:12;;;;;;;1.42;0.82;;;;;;;19.11;32.72;99597.56;1717015;83;21003;-69
2022/05/18 05:22:38;;;;;;;3.62;2.55;;;;;;;19.43;32.63;99595.61;1717583;83;20943;-71
2022/05/18 05:25:06;;;;;;;13.62;8.88;;;;;;;19.70;31.41;99597.48;1726281;82;20943;-74
2022/05/18 05:27:34;;;;;;;9.00;6.65;;;;;;;20.00;30.73;99596.15;1726064;83;21390;-70
2022/05/18 05:30:01;;;;;;;16.48;7.25;;;;;;;20.27;30.16;99595.61;1725459;83;21135;-72
2022/05/18 05:32:27;;;;;;;14.40;8.85;;;;;;;20.60;29.73;99591.04;1714155;83;21414;-69
2022/05/18 05:34:54;;;;;;;22.35;14.35;;;;;;;20.99;29.25;99598.22;1715539;83;20991;-70
2022/05/18 05:37:21;;;;;;;30.70;21.93;;;;;;;21.37;28.72;99590.47;1716527;83;21485;-68
2022/05/18 05:39:48;;;;;;;14.47;10.48;;;;;;;21.61;27.83;99597.49;1717642;83;21010;-68
2022/05/18 05:42:15;;;;;;;7.60;6.03;;;;;;;21.65;27.59;99601.36;1709905;83;21108;-70
2022/05/18 05:44:42;;;;;;;11.80;8.10;;;;;;;21.72;27.45;99610.16;1714436;83;20990;-69
2022/05/18 05:47:11;;;;;;;5.50;5.00;;;;;;;21.74;27.46;99608.58;1717042;83;21557;-71
2022/05/18 05:49:38;;;;;;;5.75;3.02;;;;;;;21.85;27.91;99605.00;1725800;83;21136;-68
2022/05/18 05:52:07;;;;;;;4.03;1.60;;;;;;;22.44;26.68;99606.45;1685678;84;21188;-69
2022/05/18 05:54:33;;;;;;;2.20;1.70;;;;;;;22.53;26.05;99601.73;1707853;83;21882;-71
2022/05/18 05:57:03;;;;;;;2.45;1.30;;;;;;;22.53;26.05;99601.73;1717317;83;21064;-69
2022/05/18 05:59:33;;;;;;;2.75;1.25;;;;;;;22.74;26.12;99613.78;1717145;83;21497;-69
2022/05/18 06:02:01;;;;;;;1.98;1.40;;;;;;;22.92;25.53;99616.77;1676015;84;21456;-70
2022/05/18 06:04:35;;;;;;;3.62;1.57;;;;;;;23.09;25.56;99614.37;1715774;83;21057;-71
2022/05/18 06:07:03;;;;;;;1.20;0.90;;;;;;;23.41;25.12;99612.42;1731742;81;21753;-68
2022/05/18 06:09:29;;;;;;;3.75;1.05;;;;;;;23.65;24.92;99621.96;1718818;83;21596;-69
2022/05/18 06:11:56;;;;;;;4.40;0.98;;;;;;;23.92;24.66;99620.98;1727016;82;21058;-70
2022/05/18 06:14:24;;;;;;;2.90;0.88;;;;;;;24.04;24.23;99626.83;1719130;83;21066;-69
2022/05/18 06:16:51;;;;;;;2.27;0.90;;;;;;;24.15;24.24;99631.31;1726853;83;21494;-69
2022/05/18 06:19:17;;;;;;;2.35;1.05;;;;;;;24.51;23.87;99634.16;1716685;83;21269;-69
2022/05/18 06:21:47;;;;;;;3.25;1.12;;;;;;;24.79;23.25;99639.08;1715715;83;21025;-69
2022/05/18 06:24:15;;;;;;;3.05;0.90;;;;;;;24.75;22.89;99639.27;1716058;83;21493;-69
2022/05/18 06:26:42;;;;;;;1.85;0.70;;;;;;;24.74;22.80;99637.08;1711032;83;21074;-70
2022/05/18 06:29:09;;;;;;;2.00;0.82;;;;;;;24.11;23.27;99644.61;1727034;83;21086;-68
2022/05/18 06:31:35;;;;;;;3.85;1.10;;;;;;;24.13;23.22;99643.81;1712704;83;21481;-67
2022/05/18 06:34:01;;;;;;;2.05;1.30;;;;;;;24.30;23.32;99648.61;1727208;82;20883;-69
2022/05/18 06:36:30;;;;;;;1.70;1.60;;;;;;;24.53;23.22;99645.59;1714575;83;20903;-71
2022/05/18 06:38:56;;;;;;;2.12;0.82;;;;;;;24.75;22.89;99644.17;1716548;83;21512;-72
2022/05/18 06:41:23;;;;;;;2.45;1.00;;;;;;;24.66;23.14;99644.38;1715275;83;20951;-69
2022/05/18 06:43:56;;;;;;;2.27;0.72;;;;;;;24.39;23.24;99655.25;1716650;83;21295;-71
2022/05/18 06:46:23;;;;;;;4.22;1.20;;;;;;;24.27;23.06;99653.75;1710339;83;20990;-73
2022/05/18 06:48:49;;;;;;;4.28;0.90;;;;;;;24.03;23.05;99654.53;1716305;83;21478;-71
2022/05/18 06:51:21;;;;;;;5.53;1.10;;;;;;;23.68;23.00;99658.13;1709956;83;22203;-70
2022/05/18 06:53:49;;;;;;;3.33;1.05;;;;;;;23.04;23.56;99652.27;1718379;83;20931;-72
2022/05/18 06:56:18;;;;;;;3.75;1.55;;;;;;;22.14;24.28;99670.37;1719549;83;21110;-70
2022/05/18 06:58:44;;;;;;;1.17;0.70;;;;;;;21.61;24.90;99671.11;1719412;83;20904;-70
2022/05/18 07:01:11;;;;;;;6.00;0.70;;;;;;;21.36;25.57;99670.81;1727735;82;20982;-70
2022/05/18 07:03:37;;;;;;;0.85;0.60;;;;;;;21.36;25.57;99670.81;1718748;83;20987;-70
2022/05/18 07:06:05;;;;;;;1.10;0.57;;;;;;;20.59;26.31;99678.59;1719928;83;21528;-69
2022/05/18 07:08:33;;;;;;;1.30;0.90;;;;;;;20.14;26.94;99690.28;1719619;83;21253;-75
2022/05/18 07:10:59;;;;;;;5.53;0.72;;;;;;;19.84;27.26;99682.64;1719507;83;20912;-70
2022/05/18 07:13:25;;;;;;;3.17;0.75;;;;;;;19.35;27.66;99686.75;1727497;83;20999;-70
2022/05/18 07:15:53;;;;;;;2.58;0.70;;;;;;;18.70;28.27;99695.67;1719547;83;20974;-70
2022/05/18 07:18:21;;;;;;;1.62;0.62;;;;;;;18.38;29.02;99691.28;1727617;83;20899;-71
2022/05/18 07:20:49;;;;;;;1.20;0.68;;;;;;;18.18;29.84;99695.92;1719464;83;21401;-70
2022/05/18 07:23:16;;;;;;;1.50;0.82;;;;;;;18.25;29.79;99698.89;1719420;83;21047;-70
2022/05/18 07:25:42;;;;;;;4.60;0.70;;;;;;;18.81;29.38;99700.89;1708334;83;20990;-69
2022/05/18 07:28:09;;;;;;;1.47;0.53;;;;;;;19.34;29.08;99705.34;1710271;83;21015;-71
2022/05/18 07:30:36;;;;;;;3.08;0.70;;;;;;;19.36;28.91;99708.12;1715945;83;21018;-69
2022/05/18 07:33:04;;;;;;;5.10;0.90;;;;;;;19.50;28.30;99712.36;1724399;83;21245;-68
2022/05/18 07:35:30;;;;;;;6.03;1.02;;;;;;;19.44;28.29;99720.02;1724328;83;20922;-70
2022/05/18 07:37:57;;;;;;;6.70;1.37;;;;;;;19.11;28.43;99720.77;1724295;83;20965;-68
2022/05/18 07:40:25;;;;;;;7.08;0.90;;;;;;;19.26;28.36;99715.89;1724350;83;21025;-70
2022/05/18 07:42:56;;;;;;;6.45;0.98;;;;;;;19.33;28.21;99722.05;1724401;83;20922;-70
2022/05/18 07:45:21;;;;;;;3.72;0.72;;;;;;;19.97;27.17;99722.19;1723888;83;21163;-69
2022/05/18 07:47:47;;;;;;;7.97;0.75;;;;;;;20.25;26.70;99719.28;1724214;83;20910;-68
2022/05/18 07:50:14;;;;;;;9.33;1.00;;;;;;;20.65;26.31;99720.91;1724355;83;20989;-71
2022/05/18 07:52:41;;;;;;;9.38;1.00;;;;;;;21.41;25.73;99723.70;1724301;83;20954;-70
2022/05/18 07:55:08;;;;;;;3.45;0.50;;;;;;;21.79;25.36;99717.00;1724629;83;21094;-68
2022/05/18 07:57:35;;;;;;;5.83;0.90;;;;;;;21.44;25.57;99733.23;1724349;83;21143;-69
2022/05/18 08:00:04;;;;;;;19.57;1.80;;;;;;;21.02;25.49;99718.91;1724214;83;20977;-71
2022/05/18 08:02:35;;;;;;;14.10;1.87;;;;;;;21.24;24.96;99727.33;1724167;83;21343;-69
2022/05/18 08:05:01;;;;;;;2.62;0.60;;;;;;;21.44;25.00;99733.23;1724231;83;21355;-69
2022/05/18 08:07:28;;;;;;;18.02;1.17;;;;;;;22.31;24.42;99726.82;1724327;83;20843;-68
2022/05/18 08:15:29;;;;;;;3.98;0.85;;;;;;;21.02;25.14;99743.77;1724466;83;20973;-69
2022/05/18 08:17:55;;;;;;;6.83;0.98;;;;;;;20.42;25.59;99753.23;1724191;83;20910;-72
2022/05/18 08:20:22;;;;;;;10.45;1.17;;;;;;;19.71;26.34;99748.39;1724362;83;20986;-69
2022/05/18 08:22:49;;;;;;;6.58;0.70;;;;;;;19.14;27.15;99758.63;1724113;83;21145;-69
2022/05/18 08:25:16;;;;;;;5.35;0.82;;;;;;;18.77;27.80;99758.97;1724217;83;20926;-70
2022/05/18 08:27:45;;;;;;;3.02;0.65;;;;;;;18.19;28.60;99758.17;1724275;83;21042;-72
2022/05/18 08:30:15;;;;;;;7.60;0.65;;;;;;;18.81;28.37;99759.66;1724011;83;21052;-69
2022/05/18 08:32:42;;;;;;;9.25;1.67;;;;;;;18.36;29.04;99769.59;1724467;83;20914;-73
2022/05/18 08:35:09;;;;;;;5.15;0.75;;;;;;;18.14;29.41;99769.58;1724317;83;21297;-69
2022/05/18 08:37:41;;;;;;;5.47;0.50;;;;;;;17.82;29.78;99766.44;1724195;83;20998;-69
2022/05/18 08:40:38;;;;;;;4.97;0.40;;;;;;;17.59;30.26;99770.09;1724100;83;20963;-70
2022/05/18 08:43:09;;;;;;;1.22;0.50;;;;;;;17.24;30.88;99778.34;1724358;83;21527;-68
2022/05/18 08:45:42;;;;;;;6.85;1.07;;;;;;;17.06;31.12;99774.08;1717099;83;20989;-67
2022/05/18 08:48:20;;;;;;;7.83;1.52;;;;;;;16.80;31.51;99781.25;1716347;83;21828;-69
2022/05/18 08:50:48;;;;;;;8.63;0.95;;;;;;;17.08;31.24;99792.67;1715301;83;21481;-69
2022/05/18 08:53:38;;;;;;;6.50;0.98;;;;;;;16.96;31.37;99783.06;1716266;83;20906;-71
2022/05/18 08:56:12;;;;;;;2.12;0.33;;;;;;;16.98;31.12;99785.02;1710404;83;21093;-70
2022/05/18 08:58:45;;;;;;;6.97;0.70;;;;;;;19.66;28.53;99764.42;1711525;83;20971;-69
2022/05/18 09:01:29;;;;;;;5.28;0.70;;;;;;;20.88;26.92;99768.30;1711640;83;21160;-69
2022/05/18 09:03:59;;;;;;;6.60;0.50;;;;;;;22.73;24.94;99752.61;1720340;82;20928;-72
2022/05/18 09:06:50;;;;;;;1.75;0.50;;;;;;;24.26;22.81;99754.86;1719686;82;20907;-68
2022/05/18 09:12:19;;;;;;;4.58;0.50;;;;;;;26.45;20.46;99748.33;1711605;83;20927;-68
2022/05/18 09:14:46;;;;;;;3.05;0.72;;;;;;;26.89;19.74;99750.41;1719804;83;21856;-69
2022/05/18 09:17:57;;;;;;;4.72;0.75;;;;;;;25.80;20.66;99756.42;1711607;83;21592;-70
2022/05/18 09:20:44;;;;;;;1.15;0.40;;;;;;;26.22;20.07;99761.34;1719678;83;20896;-68
2022/05/18 09:23:41;;;;;;;;;;;;;;;24.22;21.84;99771.38;1705079;83;21485;-70
2022/05/18 09:26:17;;;;;;;1.77;0.50;;;;;;;23.77;22.34;99766.64;1712264;83;20077;-72
2022/05/18 09:29:04;;;;;;;6.72;0.80;;;;;;;25.44;21.04;99759.94;1720131;82;21250;-69
2022/05/18 09:31:41;;;;;;;7.22;0.50;;;;;;;26.32;20.16;99764.65;1711723;83;20980;-70
2022/05/18 09:34:45;;;;;;;1.82;0.60;;;;;;;27.02;19.67;99768.71;1720410;82;39333;-69
2022/05/18 09:37:33;;;;;;;2.27;1.05;;;;;;;26.95;19.66;99768.98;1719632;82;21002;-71
2022/05/18 09:40:08;;;;;;;6.60;1.75;;;;;;;26.63;19.94;99765.05;1711876;83;20956;-68
2022/05/18 09:42:40;;;;;;;5.37;1.27;;;;;;;24.80;21.06;99778.09;1711529;83;22256;-69
2022/05/18 09:45:16;;;;;;;6.58;2.52;;;;;;;24.79;21.16;99781.38;1711319;83;20900;-70
2022/05/18 09:47:52;;;;;;;11.22;1.90;;;;;;;23.30;22.25;99790.03;1719882;82;20987;-71
2022/05/18 09:50:19;;;;;;;1.98;0.95;;;;;;;22.22;23.43;99796.52;1711555;83;20920;-70
2022/05/18 09:52:45;;;;;;;5.45;0.85;;;;;;;22.31;23.69;99797.28;1701982;83;21563;-70
2022/05/18 09:55:14;;;;;;;3.10;1.00;;;;;;;22.01;24.03;99796.07;1711631;83;21497;-70
2022/05/18 09:58:05;;;;;;;8.45;1.42;;;;;;;22.94;23.45;99794.53;1711538;83;20888;-70
2022/05/18 10:00:35;;;;;;;5.55;1.42;;;;;;;23.65;22.86;99794.41;1720282;82;20931;-69
2022/05/18 10:08:54;;;;;;;0.70;0.50;;;;;;;20.30;26.16;99813.14;1711481;83;21832;-71
2022/05/18 10:11:28;;;;;;;1.60;0.30;;;;;;;19.75;27.07;99818.13;1711433;83;20899;-69
2022/05/18 10:14:09;;;;;;;4.35;0.70;;;;;;;19.47;27.66;99809.97;1711599;82;20987;-70
2022/05/18 10:16:43;;;;;;;4.47;1.02;;;;;;;19.22;28.33;99821.20;1711659;83;20951;-69
2022/05/18 10:19:32;;;;;;;2.65;0.85;;;;;;;19.09;28.58;99814.54;1711452;83;20911;-70
2022/05/18 10:22:04;;;;;;;1.87;0.70;;;;;;;18.86;28.81;99818.30;1701362;83;21157;-67
2022/05/18 10:24:56;;;;;;;1.57;0.60;;;;;;;18.63;29.73;99828.27;1719901;82;20959;-69
2022/05/18 10:27:30;;;;;;;27.52;1.62;;;;;;;18.68;29.88;99815.49;1711596;83;21624;-71
2022/05/18 10:30:08;;;;;;;15.55;1.87;;;;;;;18.73;30.26;99822.41;1719936;82;20923;-70
2022/05/18 10:32:35;;;;;;;2.02;0.70;;;;;;;18.84;30.01;99827.13;1719740;83;20978;-71
2022/05/18 10:35:01;;;;;;;5.55;0.98;;;;;;;18.92;29.97;99830.94;1711581;83;21176;-68
2022/05/18 10:37:33;;;;;;;11.53;1.62;;;;;;;18.83;30.15;99815.52;1711633;83;20987;-70
2022/05/18 10:40:11;;;;;;;8.28;0.70;;;;;;;18.77;30.44;99825.00;1711700;83;20955;-69
2022/05/18 10:42:48;;;;;;;2.22;0.88;;;;;;;18.84;30.60;99820.39;1711683;83;20948;-69
2022/05/18 10:45:33;;;;;;;2.45;0.90;;;;;;;19.01;30.58;99828.27;1711703;83;21002;-68
2022/05/18 10:48:16;;;;;;;3.90;0.95;;;;;;;19.23;30.13;99814.77;1719721;82;21114;-69
2022/05/18 10:50:42;;;;;;;17.77;1.80;;;;;;;19.30;30.09;99814.19;1710618;83;21254;-70
2022/05/18 10:53:20;;;;;;;7.92;1.37;;;;;;;19.22;30.22;99823.89;1711670;83;21553;-69
2022/05/18 10:56:04;;;;;;;5.08;0.98;;;;;;;19.08;30.44;99816.41;1720480;82;21005;-67
2022/05/18 10:58:44;;;;;;;3.33;1.30;;;;;;;18.93;30.33;99822.61;1711605;83;20900;-69
2022/05/18 11:01:28;;;;;;;4.20;1.05;;;;;;;18.78;30.84;99826.13;1705409;83;21446;-72
2022/05/18 11:04:09;;;;;;;5.35;1.72;;;;;;;18.88;30.90;99825.13;1720585;82;20982;-71
2022/05/18 11:06:38;;;;;;;2.35;0.88;;;;;;;18.85;30.73;99829.60;1716555;83;20926;-68
2022/05/18 11:09:10;;;;;;;9.90;1.82;;;;;;;18.74;31.08;99830.81;1716179;83;20962;-71
2022/05/18 11:12:00;;;;;;;15.28;1.30;;;;;;;18.60;31.53;99821.12;1706066;83;21044;-71
2022/05/18 11:14:59;;;;;;;5.92;1.62;;;;;;;18.26;31.90;99827.11;1716447;83;21144;-68
2022/05/18 11:18:04;;;;;;;1.22;0.70;;;;;;;17.93;32.63;99833.60;1716260;83;21457;-69
2022/05/18 11:20:49;;;;;;;7.58;0.85;;;;;;;17.59;33.27;99832.80;1716113;83;21436;-69
2022/05/18 11:23:34;;;;;;;9.98;1.00;;;;;;;17.47;33.53;99836.28;1711029;83;22170;-69
2022/05/18 11:26:31;;;;;;;1.55;0.85;;;;;;;17.50;33.75;99837.19;1716441;83;20964;-68
2022/05/18 11:29:32;;;;;;;9.08;1.00;;;;;;;17.52;33.83;99832.45;1712200;83;21267;-69
2022/05/18 11:32:28;;;;;;;3.95;1.12;;;;;;;17.48;34.07;99832.03;1711603;83;20856;-69
2022/05/18 11:35:22;;;;;;;1.42;1.30;;;;;;;17.31;34.40;99835.33;1719739;83;20986;-69
2022/05/18 11:38:20;;;;;;;8.05;0.90;;;;;;;17.19;34.68;99833.23;1670270;85;20972;-69
2022/05/18 11:41:34;;;;;;;4.03;1.22;;;;;;;17.12;35.09;99842.33;1685840;85;21006;-68
2022/05/18 11:44:15;;;;;;;16.12;2.50;;;;;;;17.14;35.30;99847.81;1707139;83;21122;-68
2022/05/18 11:46:59;;;;;;;6.90;1.00;;;;;;;17.14;34.94;99857.73;1721504;81;21064;-70
2022/05/18 11:49:55;;;;;;;4.28;0.93;;;;;;;17.13;34.80;99864.95;1719022;83;21000;-70
2022/05/18 11:52:50;;;;;;;5.60;1.92;;;;;;;17.06;35.11;99856.56;1719260;83;21043;-69
2022/05/18 11:55:59;;;;;;;3.00;0.98;;;;;;;17.15;35.23;99857.51;1719715;83;20947;-67
2022/05/18 11:58:54;;;;;;;3.42;0.93;;;;;;;17.22;35.19;99867.78;1719262;83;21179;-69
2022/05/18 12:01:38;;;;;;;6.70;1.30;;;;;;;17.24;34.91;99863.53;1732657;81;21477;-71
2022/05/18 12:04:45;;;;;;;1.00;0.90;;;;;;;17.18;35.24;99870.55;1724208;83;20890;-72
2022/05/18 12:07:40;;;;;;;1.37;0.88;;;;;;;17.21;35.27;99863.42;1724258;83;20950;-69
2022/05/18 12:10:29;;;;;;;5.60;1.30;;;;;;;17.25;35.16;99859.31;1724424;83;21680;-68
2022/05/18 12:13:27;;;;;;;3.72;0.93;;;;;;;17.16;35.33;99872.62;1724240;83;21156;-69
2022/05/18 12:16:11;;;;;;;6.22;1.30;;;;;;;17.17;35.47;99864.87;1698853;83;20998;-68
2022/05/18 12:18:51;;;;;;;1.25;0.90;;;;;;;17.08;35.92;99866.08;1724235;83;21324;-70
2022/05/18 12:21:40;;;;;;;1.70;1.00;;;;;;;16.96;35.70;99870.91;1724326;83;20942;-69